createdAt,value
2024-02-29T00:02:18.092Z,24.37
2024-02-29T00:04:44.693Z,23.50
2024-02-29T00:07:11.313Z,23.00
2024-02-29T00:09:38.205Z,20.83
2024-02-29T00:12:05.466Z,24.30
2024-02-29T00:14:32.256Z,20.60
2024-02-29T00:16:58.970Z,23.83
2024-02-29T00:19:25.777Z,22.53
2024-02-29T00:21:52.331Z,20.93
2024-02-29T00:24:18.868Z,23.77
2024-02-29T00:26:45.445Z,21.10
2024-02-29T00:29:11.970Z,21.27
2024-02-29T00:31:43.394Z,20.23
2024-02-29T00:34:10.339Z,20.40
2024-02-29T00:36:36.953Z,21.90
2024-02-29T00:39:11.488Z,21.73
2024-02-29T00:41:41.266Z,21.57
2024-02-29T00:44:07.826Z,18.37
2024-02-29T00:46:34.348Z,20.53
2024-02-29T00:49:00.905Z,23.07
2024-02-29T00:51:27.441Z,17.60
2024-02-29T00:53:54.008Z,19.87
2024-02-29T00:56:20.539Z,20.47
2024-02-29T00:58:47.072Z,23.33
2024-02-29T01:01:13.727Z,19.53
2024-02-29T01:06:06.974Z,20.53
2024-02-29T01:08:33.570Z,22.57
2024-02-29T01:11:00.162Z,18.47
2024-02-29T01:13:26.714Z,20.10
2024-02-29T01:15:53.344Z,17.27
2024-02-29T01:18:19.912Z,17.13
2024-02-29T01:20:46.564Z,19.80
2024-02-29T01:23:13.104Z,18.60
2024-02-29T01:25:39.607Z,19.50
2024-02-29T01:28:06.490Z,17.00
2024-02-29T01:30:33.127Z,19.00
2024-02-29T01:32:59.748Z,17.70
2024-02-29T01:35:26.329Z,17.40
2024-02-29T01:37:52.878Z,19.43
2024-02-29T01:40:19.760Z,18.50
2024-02-29T01:42:46.515Z,20.40
2024-02-29T01:45:13.698Z,19.13
2024-02-29T01:47:40.251Z,21.97
2024-02-29T01:50:09.046Z,19.13
2024-02-29T01:52:38.721Z,21.33
2024-02-29T01:55:06.002Z,21.27
2024-02-29T01:57:33.081Z,19.13
2024-02-29T02:00:00.155Z,20.83
2024-02-29T02:02:26.916Z,18.10
2024-02-29T02:04:53.463Z,19.60
2024-02-29T02:07:20.304Z,22.00
2024-02-29T02:09:47.407Z,20.47
2024-02-29T02:12:14.589Z,20.20
2024-02-29T02:14:41.191Z,22.70
2024-02-29T02:17:08.107Z,18.77
2024-02-29T02:19:34.626Z,19.07
2024-02-29T02:22:01.293Z,19.17
2024-02-29T02:24:27.815Z,20.50
2024-02-29T02:26:54.444Z,21.97
2024-02-29T02:29:20.984Z,20.30
2024-02-29T02:31:47.507Z,20.40
2024-02-29T02:34:14.140Z,19.87
2024-02-29T02:36:40.730Z,18.60
2024-02-29T02:39:07.383Z,20.87
2024-02-29T02:41:33.937Z,21.70
2024-02-29T02:44:00.583Z,18.90
2024-02-29T02:46:27.098Z,19.40
2024-02-29T02:48:53.629Z,23.37
2024-02-29T02:51:20.221Z,23.10
2024-02-29T02:53:46.705Z,21.37
2024-02-29T02:56:13.182Z,21.20
2024-02-29T02:58:39.725Z,24.73
2024-02-29T03:01:06.267Z,27.30
2024-02-29T03:03:32.823Z,22.50
2024-02-29T03:05:59.411Z,25.13
2024-02-29T03:08:25.940Z,26.03
2024-02-29T03:10:52.474Z,23.23
2024-02-29T03:13:19.279Z,24.23
2024-02-29T03:15:45.946Z,22.70
2024-02-29T03:18:12.588Z,24.47
2024-02-29T03:20:39.089Z,20.67
2024-02-29T03:23:05.639Z,24.13
2024-02-29T03:25:32.110Z,23.43
2024-02-29T03:27:58.696Z,25.00
2024-02-29T03:30:25.207Z,27.43
2024-02-29T03:32:54.125Z,25.50
2024-02-29T03:35:20.655Z,28.77
2024-02-29T03:37:47.233Z,35.67
2024-02-29T03:40:13.935Z,33.47
2024-02-29T03:42:40.682Z,35.63
2024-02-29T03:45:07.468Z,33.37
2024-02-29T03:47:34.032Z,35.30
2024-02-29T03:50:00.631Z,34.67
2024-02-29T03:52:27.247Z,36.30
2024-02-29T03:54:53.820Z,38.50
2024-02-29T03:57:20.368Z,35.83
2024-02-29T03:59:46.920Z,39.40
2024-02-29T04:02:13.638Z,33.67
2024-02-29T04:04:40.200Z,33.00
2024-02-29T04:07:06.806Z,41.43
2024-02-29T04:09:33.370Z,37.70
2024-02-29T04:11:59.947Z,37.80
2024-02-29T04:14:26.479Z,38.00
2024-02-29T04:16:53.036Z,33.40
2024-02-29T04:19:19.598Z,32.33
2024-02-29T04:21:47.264Z,38.90
2024-02-29T04:24:13.802Z,38.40
2024-02-29T04:26:40.333Z,35.57
2024-02-29T04:29:06.865Z,32.73
2024-02-29T04:31:33.423Z,35.03
2024-02-29T04:33:59.961Z,37.63
2024-02-29T04:36:26.604Z,30.60
2024-02-29T04:38:53.125Z,32.70
2024-02-29T04:41:19.672Z,34.97
2024-02-29T04:43:46.207Z,36.37
2024-02-29T04:46:12.853Z,31.80
2024-02-29T04:48:39.515Z,35.70
2024-02-29T04:51:06.220Z,40.90
2024-02-29T04:53:32.777Z,37.80
2024-02-29T04:55:59.267Z,35.43
2024-02-29T04:58:25.831Z,33.53
2024-02-29T05:00:52.775Z,34.80
2024-02-29T05:03:19.354Z,35.00
2024-02-29T05:05:45.876Z,32.73
2024-02-29T05:08:12.424Z,33.27
2024-02-29T05:10:38.983Z,35.50
2024-02-29T05:13:05.484Z,40.57
2024-02-29T05:15:32.021Z,37.07
2024-02-29T05:17:59.548Z,33.50
2024-02-29T05:20:26.193Z,35.17
2024-02-29T05:22:52.705Z,39.50
2024-02-29T05:25:19.267Z,33.40
2024-02-29T05:27:45.870Z,39.77
2024-02-29T05:30:12.863Z,32.40
2024-02-29T05:32:39.400Z,34.20
2024-02-29T05:35:06.536Z,35.47
2024-02-29T05:37:33.018Z,38.60
2024-02-29T05:39:59.617Z,37.97
2024-02-29T05:42:26.565Z,35.97
2024-02-29T05:44:53.642Z,36.30
2024-02-29T05:47:20.133Z,32.87
2024-02-29T05:49:46.659Z,37.17
2024-02-29T05:52:13.331Z,35.47
2024-02-29T05:54:39.897Z,31.03
2024-02-29T05:57:06.556Z,33.07
2024-02-29T05:59:33.256Z,32.83
2024-02-29T06:01:59.792Z,35.83
2024-02-29T06:04:26.444Z,42.60
2024-02-29T06:06:53.675Z,36.93
2024-02-29T06:09:20.318Z,36.37
2024-02-29T06:11:46.888Z,30.60
2024-02-29T06:14:13.409Z,33.27
2024-02-29T06:16:39.888Z,37.83
2024-02-29T06:19:06.426Z,33.20
2024-02-29T06:21:33.057Z,36.47
2024-02-29T06:23:59.557Z,37.10
2024-02-29T06:26:26.092Z,33.90
2024-02-29T06:28:52.716Z,35.70
2024-02-29T06:31:19.378Z,39.27
2024-02-29T06:33:46.321Z,42.43
2024-02-29T06:36:12.938Z,35.57
2024-02-29T06:38:39.506Z,33.80
2024-02-29T06:41:11.948Z,34.80
2024-02-29T06:43:38.448Z,31.57
2024-02-29T06:46:05.308Z,30.27
2024-02-29T06:48:32.044Z,33.87
2024-02-29T06:50:58.538Z,35.93
2024-02-29T06:53:25.099Z,30.73
2024-02-29T06:55:51.567Z,37.37
2024-02-29T06:58:18.205Z,37.47
2024-02-29T07:00:44.890Z,32.97
2024-02-29T07:03:11.395Z,37.00
2024-02-29T07:05:37.862Z,38.20
2024-02-29T07:08:04.652Z,39.47
2024-02-29T07:10:31.158Z,39.27
2024-02-29T07:12:57.770Z,35.60
2024-02-29T07:15:24.569Z,39.77
2024-02-29T07:17:51.150Z,34.63
2024-02-29T07:20:17.701Z,35.00
2024-02-29T07:22:45.266Z,37.33
2024-02-29T07:25:11.945Z,38.30
2024-02-29T07:27:38.601Z,38.50
2024-02-29T07:30:06.340Z,38.37
2024-02-29T07:32:33.010Z,40.30
2024-02-29T07:34:59.511Z,41.93
2024-02-29T07:37:26.154Z,41.23
2024-02-29T07:39:52.785Z,41.83
2024-02-29T07:42:19.315Z,33.87
2024-02-29T07:44:45.861Z,44.33
2024-02-29T07:47:12.388Z,36.57
2024-02-29T07:49:38.870Z,44.50
2024-02-29T07:52:05.771Z,38.13
2024-02-29T07:54:32.360Z,39.07
2024-02-29T07:56:58.989Z,40.70
2024-02-29T07:59:25.495Z,51.20
2024-02-29T08:01:52.118Z,37.13
2024-02-29T08:04:18.708Z,41.07
2024-02-29T08:06:45.266Z,41.13
2024-02-29T08:09:11.822Z,40.23
2024-02-29T08:11:38.346Z,40.90
2024-02-29T08:14:04.884Z,41.03
2024-02-29T08:16:31.472Z,38.23
2024-02-29T08:18:57.985Z,44.67
2024-02-29T08:21:24.473Z,41.20
2024-02-29T08:23:51.001Z,42.25
2024-02-29T08:26:17.576Z,40.30
2024-02-29T08:28:44.122Z,44.03
2024-02-29T08:31:10.670Z,39.07
2024-02-29T08:33:37.172Z,37.80
2024-02-29T08:36:04.237Z,47.87
2024-02-29T08:38:30.809Z,40.57
2024-02-29T08:40:57.300Z,39.20
2024-02-29T08:43:23.868Z,51.03
2024-02-29T08:45:50.485Z,45.20
2024-02-29T08:48:17.038Z,42.73
2024-02-29T08:50:43.587Z,41.33
2024-02-29T08:53:10.197Z,40.70
2024-02-29T08:55:37.768Z,40.47
2024-02-29T08:58:04.485Z,48.13
2024-02-29T09:00:31.113Z,40.60
2024-02-29T09:02:57.686Z,40.73
2024-02-29T09:05:24.477Z,43.03
2024-02-29T09:07:51.051Z,45.67
2024-02-29T09:10:17.685Z,46.10
2024-02-29T09:12:44.422Z,38.73
2024-02-29T09:15:11.073Z,38.10
2024-02-29T09:17:37.627Z,38.33
2024-02-29T09:20:04.406Z,44.47
2024-02-29T09:22:31.012Z,38.03
2024-02-29T09:24:57.592Z,45.60
2024-02-29T09:27:24.153Z,40.40
2024-02-29T09:29:50.735Z,40.23
2024-02-29T09:32:17.280Z,36.60
2024-02-29T09:34:47.832Z,38.60
2024-02-29T09:37:16.737Z,45.13
2024-02-29T09:39:43.305Z,38.10
2024-02-29T09:42:13.903Z,47.33
2024-02-29T09:44:42.235Z,44.40
2024-02-29T09:47:09.679Z,40.80
2024-02-29T09:49:36.198Z,41.13
2024-02-29T09:52:03.495Z,42.17
2024-02-29T09:54:31.241Z,40.40
2024-02-29T09:56:57.802Z,38.30
2024-02-29T09:59:24.948Z,35.07
2024-02-29T10:01:52.793Z,38.47
2024-02-29T10:04:19.862Z,39.60
2024-02-29T10:06:46.462Z,40.47
2024-02-29T10:09:13.109Z,36.60
2024-02-29T10:11:43.186Z,36.30
2024-02-29T10:14:20.161Z,34.03
2024-02-29T10:16:51.228Z,37.50
2024-02-29T10:19:17.932Z,32.67
2024-02-29T10:21:44.625Z,34.43
2024-02-29T10:24:11.148Z,31.07
2024-02-29T10:26:37.638Z,35.83
2024-02-29T10:29:11.340Z,28.70
2024-02-29T10:31:39.699Z,38.20
2024-02-29T10:34:10.401Z,31.13
2024-02-29T10:36:37.079Z,27.80
2024-02-29T10:39:03.718Z,40.20
2024-02-29T10:41:32.166Z,25.83
2024-02-29T10:44:03.376Z,29.90
2024-02-29T10:46:30.822Z,30.50
2024-02-29T10:49:04.088Z,27.97
2024-02-29T10:51:51.605Z,30.30
2024-02-29T10:54:19.562Z,26.20
2024-02-29T10:56:47.116Z,27.93
2024-02-29T10:59:17.387Z,28.13
2024-02-29T11:01:45.243Z,22.33
2024-02-29T11:04:12.101Z,26.03
2024-02-29T11:06:41.984Z,20.90
2024-02-29T11:09:08.657Z,31.13
2024-02-29T11:11:35.318Z,25.77
2024-02-29T11:14:03.557Z,21.93
2024-02-29T11:16:32.696Z,22.53
2024-02-29T11:19:02.980Z,32.20
2024-02-29T11:21:29.884Z,21.53
2024-02-29T11:24:04.624Z,23.60
2024-02-29T11:26:32.343Z,27.30
2024-02-29T11:28:59.028Z,20.27
2024-02-29T11:31:26.425Z,29.10
2024-02-29T11:33:52.952Z,21.87
2024-02-29T11:36:20.292Z,33.80
2024-02-29T11:38:46.871Z,24.83
2024-02-29T11:41:20.840Z,28.10
2024-02-29T11:43:48.196Z,29.10
2024-02-29T11:46:14.825Z,25.57
2024-02-29T11:48:41.960Z,26.90
2024-02-29T11:51:08.583Z,29.90
2024-02-29T11:53:35.485Z,28.43
2024-02-29T11:56:10.396Z,28.77
2024-02-29T11:58:41.936Z,23.70
2024-02-29T12:01:08.624Z,26.53
2024-02-29T12:03:35.981Z,23.63
2024-02-29T12:06:02.538Z,27.23
2024-02-29T12:08:29.299Z,28.27
2024-02-29T12:10:59.394Z,26.53
2024-02-29T12:13:27.303Z,24.20
2024-02-29T12:15:55.860Z,22.23
2024-02-29T12:18:23.199Z,31.97
2024-02-29T12:20:50.444Z,24.47
2024-02-29T12:23:18.446Z,29.30
2024-02-29T12:25:45.091Z,34.00
2024-02-29T12:28:13.253Z,25.70
2024-02-29T12:30:40.075Z,24.07
2024-02-29T12:33:07.017Z,24.20
2024-02-29T12:35:33.916Z,27.73
2024-02-29T12:38:00.754Z,26.53
2024-02-29T12:40:27.564Z,26.47
2024-02-29T12:42:54.182Z,24.03
2024-02-29T12:45:20.806Z,25.47
2024-02-29T12:47:47.374Z,25.63
2024-02-29T12:50:13.980Z,23.30
2024-02-29T12:52:40.521Z,23.27
2024-02-29T12:55:07.635Z,27.33
2024-02-29T12:57:34.294Z,22.27
2024-02-29T13:00:01.300Z,30.67
2024-02-29T13:02:27.800Z,26.47
2024-02-29T13:04:54.437Z,31.40
2024-02-29T13:07:21.075Z,23.87
2024-02-29T13:09:47.706Z,28.57
2024-02-29T13:12:14.273Z,26.47
2024-02-29T13:14:40.886Z,24.90
2024-02-29T13:17:08.235Z,22.73
2024-02-29T13:19:34.765Z,32.40
2024-02-29T13:22:01.429Z,27.83
2024-02-29T13:24:28.008Z,26.17
2024-02-29T13:26:55.223Z,21.60
2024-02-29T13:29:22.940Z,32.17
2024-02-29T13:31:49.455Z,24.17
2024-02-29T13:34:16.091Z,27.90
2024-02-29T13:36:42.651Z,28.00
2024-02-29T13:39:09.265Z,27.00
2024-02-29T13:41:35.978Z,30.50
2024-02-29T13:44:02.515Z,25.40
2024-02-29T13:46:32.089Z,30.70
2024-02-29T13:49:20.239Z,29.70
2024-02-29T13:51:45.214Z,23.17
2024-02-29T13:54:11.724Z,23.47
2024-02-29T13:56:38.222Z,22.47
2024-02-29T13:59:04.862Z,27.97
2024-02-29T14:01:31.509Z,27.57
2024-02-29T14:03:58.143Z,26.10
2024-02-29T14:06:24.717Z,33.30
2024-02-29T14:08:51.197Z,25.53
2024-02-29T14:11:17.841Z,26.40
2024-02-29T14:13:44.395Z,21.97
2024-02-29T14:16:11.794Z,22.97
2024-02-29T14:18:38.479Z,28.20
2024-02-29T14:21:05.759Z,25.53
2024-02-29T14:23:32.508Z,21.20
2024-02-29T14:25:59.022Z,28.90
2024-02-29T14:28:25.752Z,21.37
2024-02-29T14:30:52.416Z,21.53
2024-02-29T14:33:19.008Z,28.70
2024-02-29T14:35:45.618Z,20.57
2024-02-29T14:38:12.169Z,26.93
2024-02-29T14:40:38.700Z,32.13
2024-02-29T14:43:05.522Z,26.50
2024-02-29T14:45:32.202Z,25.37
2024-02-29T14:47:58.939Z,31.20
2024-02-29T14:50:25.634Z,24.03
2024-02-29T14:52:52.164Z,25.70
2024-02-29T14:55:18.712Z,25.93
2024-02-29T14:57:45.362Z,20.77
2024-02-29T15:00:12.311Z,24.23
2024-02-29T15:02:39.470Z,29.37
2024-02-29T15:05:09.427Z,23.20
2024-02-29T15:07:36.940Z,27.47
2024-02-29T15:10:08.921Z,24.97
2024-02-29T15:12:35.486Z,24.97
2024-02-29T15:15:02.104Z,28.57
2024-02-29T15:17:32.830Z,25.33
2024-02-29T15:20:00.610Z,28.27
2024-02-29T15:22:27.274Z,27.33
2024-02-29T15:24:53.910Z,29.37
2024-02-29T15:27:20.585Z,29.30
2024-02-29T15:29:47.215Z,23.33
2024-02-29T15:32:13.819Z,25.60
2024-02-29T15:34:40.350Z,27.00
2024-02-29T15:37:07.196Z,29.87
2024-02-29T15:39:34.924Z,23.87
2024-02-29T15:42:01.459Z,26.23
2024-02-29T15:44:28.640Z,22.83
2024-02-29T15:46:55.219Z,30.00
2024-02-29T15:49:21.833Z,29.43
2024-02-29T15:51:48.593Z,27.33
2024-02-29T15:54:15.113Z,25.70
2024-02-29T15:56:41.685Z,28.70
2024-02-29T15:59:08.630Z,32.60
2024-02-29T16:01:35.213Z,21.17
2024-02-29T16:04:01.788Z,32.47
2024-02-29T16:06:28.318Z,23.07
2024-02-29T16:08:54.940Z,27.20
2024-02-29T16:11:21.830Z,32.37
2024-02-29T16:13:49.471Z,26.57
2024-02-29T16:16:16.267Z,25.10
2024-02-29T16:18:42.892Z,25.07
2024-02-29T16:21:09.410Z,31.17
2024-02-29T16:23:35.934Z,26.83
2024-02-29T16:26:02.941Z,26.63
2024-02-29T16:28:29.812Z,24.43
2024-02-29T16:30:57.090Z,24.90
2024-02-29T16:33:23.682Z,22.87
2024-02-29T16:35:50.378Z,22.10
2024-02-29T16:38:17.147Z,23.33
2024-02-29T16:40:43.718Z,27.77
2024-02-29T16:43:10.348Z,28.93
2024-02-29T16:45:36.908Z,28.77
2024-02-29T16:48:03.878Z,26.03
2024-02-29T16:50:31.420Z,22.00
2024-02-29T16:52:57.969Z,25.00
2024-02-29T16:55:24.629Z,20.97
2024-02-29T16:57:51.357Z,26.07
2024-02-29T17:00:18.007Z,24.73
2024-02-29T17:02:45.202Z,24.10
2024-02-29T17:05:11.749Z,28.63
2024-02-29T17:07:38.276Z,30.63
2024-02-29T17:10:05.203Z,25.50
2024-02-29T17:12:31.742Z,28.70
2024-02-29T17:14:58.272Z,26.40
2024-02-29T17:17:24.885Z,27.57
2024-02-29T17:19:51.455Z,26.10
2024-02-29T17:22:18.014Z,28.47
2024-02-29T17:24:44.571Z,23.07
2024-02-29T17:27:11.153Z,24.53
2024-02-29T17:29:37.737Z,36.10
2024-02-29T17:32:05.134Z,33.60
2024-02-29T17:34:31.757Z,25.60
2024-02-29T17:36:58.305Z,33.80
2024-02-29T17:39:25.482Z,28.70
2024-02-29T17:41:52.004Z,29.30
2024-02-29T17:44:18.573Z,26.30
2024-02-29T17:46:45.116Z,30.00
2024-02-29T17:49:11.707Z,27.57
2024-02-29T17:51:44.325Z,27.63
2024-02-29T17:54:10.926Z,25.70
2024-02-29T17:56:38.050Z,23.30
2024-02-29T17:59:04.655Z,42.87
2024-02-29T18:01:31.421Z,33.47
2024-02-29T18:03:58.062Z,30.60
2024-02-29T18:06:24.627Z,31.73
2024-02-29T18:08:51.214Z,26.67
2024-02-29T18:11:17.797Z,26.73
2024-02-29T18:13:44.317Z,26.03
2024-02-29T18:16:10.988Z,27.33
2024-02-29T18:18:37.609Z,34.10
2024-02-29T18:21:04.360Z,28.50
2024-02-29T18:23:31.010Z,27.80
2024-02-29T18:25:57.613Z,24.53
2024-02-29T18:28:24.219Z,25.93
2024-02-29T18:30:51.075Z,29.10
2024-02-29T18:33:17.823Z,32.10
2024-02-29T18:35:44.449Z,26.20
2024-02-29T18:38:11.077Z,27.63
2024-02-29T18:40:37.751Z,26.00
2024-02-29T18:43:05.187Z,24.80
2024-02-29T18:45:31.697Z,29.43
2024-02-29T18:47:58.263Z,26.60
2024-02-29T18:50:24.814Z,30.10
2024-02-29T18:52:51.375Z,26.57
2024-02-29T18:55:18.175Z,27.43
2024-02-29T18:57:44.766Z,28.23
2024-02-29T19:00:11.760Z,23.90
2024-02-29T19:02:38.457Z,22.90
2024-02-29T19:05:05.228Z,25.47
2024-02-29T19:07:31.799Z,25.80
2024-02-29T19:09:58.481Z,32.50
2024-02-29T19:12:25.224Z,23.90
2024-02-29T19:14:52.956Z,23.73
2024-02-29T19:17:19.524Z,25.97
2024-02-29T19:19:46.094Z,25.23
2024-02-29T19:22:12.637Z,24.83
2024-02-29T19:24:39.307Z,28.37
2024-02-29T19:27:05.962Z,24.50
2024-02-29T19:29:32.791Z,23.80
2024-02-29T19:31:59.348Z,23.40
2024-02-29T19:34:26.218Z,24.10
2024-02-29T19:36:52.851Z,22.07
2024-02-29T19:39:19.527Z,26.10
2024-02-29T19:41:46.114Z,22.10
2024-02-29T19:44:12.829Z,24.27
2024-02-29T19:46:45.626Z,20.90
2024-02-29T19:49:12.311Z,21.03
2024-02-29T19:51:41.712Z,22.83
2024-02-29T19:54:08.435Z,25.20
2024-02-29T19:56:34.975Z,22.60
2024-02-29T19:59:01.585Z,26.27
2024-02-29T20:01:28.274Z,23.20
2024-02-29T20:03:55.093Z,24.60
2024-02-29T20:06:21.627Z,24.70
2024-02-29T20:08:48.489Z,28.87
2024-02-29T20:11:15.854Z,28.37
2024-02-29T20:13:42.491Z,36.10
2024-02-29T20:16:09.147Z,27.83
2024-02-29T20:18:35.732Z,26.50
2024-02-29T20:21:02.463Z,28.93
2024-02-29T20:23:29.013Z,31.83
2024-02-29T20:25:55.631Z,31.67
2024-02-29T20:28:22.387Z,24.87
2024-02-29T20:30:49.038Z,31.40
2024-02-29T20:33:15.666Z,30.27
2024-02-29T20:35:42.850Z,29.73
2024-02-29T20:38:09.404Z,27.67
2024-02-29T20:40:35.919Z,27.10
2024-02-29T20:43:02.504Z,29.43
2024-02-29T20:45:29.044Z,30.03
2024-02-29T20:47:55.661Z,26.90
2024-02-29T20:50:22.481Z,29.33
2024-02-29T20:52:49.255Z,32.90
2024-02-29T20:55:15.938Z,41.83
2024-02-29T20:57:42.502Z,33.53
2024-02-29T21:00:09.465Z,33.80
2024-02-29T21:02:36.919Z,27.60
2024-02-29T21:05:03.626Z,32.47
2024-02-29T21:07:32.596Z,33.17
2024-02-29T21:10:00.009Z,33.57
2024-02-29T21:12:26.543Z,32.10
2024-02-29T21:14:53.114Z,30.97
2024-02-29T21:17:20.160Z,34.50
2024-02-29T21:19:46.732Z,28.90
2024-02-29T21:22:13.356Z,31.80
2024-02-29T21:24:40.508Z,32.80
2024-02-29T21:27:08.349Z,33.53
2024-02-29T21:29:35.075Z,32.27
2024-02-29T21:32:01.807Z,33.67
2024-02-29T21:34:28.370Z,40.23
2024-02-29T21:36:55.032Z,38.20
2024-02-29T21:39:28.476Z,32.87
2024-02-29T21:42:02.942Z,30.93
2024-02-29T21:44:29.472Z,36.87
2024-02-29T21:46:56.012Z,36.60
2024-02-29T21:49:22.665Z,34.10
2024-02-29T21:51:49.368Z,33.27
2024-02-29T21:54:15.981Z,31.37
2024-02-29T21:56:42.493Z,35.33
2024-02-29T21:59:09.028Z,32.80
2024-02-29T22:01:35.678Z,33.90
2024-02-29T22:04:02.591Z,31.67
2024-02-29T22:06:29.192Z,32.27
2024-02-29T22:08:55.699Z,33.23
2024-02-29T22:11:22.207Z,29.30
2024-02-29T22:13:48.816Z,28.77
2024-02-29T22:16:15.372Z,26.93
2024-02-29T22:18:41.929Z,29.90
2024-02-29T22:21:08.403Z,32.23
2024-02-29T22:23:34.913Z,36.93
2024-02-29T22:26:01.453Z,31.00
2024-02-29T22:28:28.104Z,30.37
2024-02-29T22:30:54.762Z,34.00
2024-02-29T22:33:21.488Z,29.83
2024-02-29T22:35:48.041Z,42.97
2024-02-29T22:38:14.546Z,32.83
2024-02-29T22:40:42.329Z,35.20
2024-02-29T22:43:08.878Z,31.57
2024-02-29T22:45:35.436Z,40.20
2024-02-29T22:48:02.058Z,33.67
2024-02-29T22:50:28.596Z,34.80
2024-02-29T22:52:55.113Z,45.27
2024-02-29T22:55:21.644Z,30.73
2024-02-29T22:57:48.346Z,31.70
2024-02-29T23:00:15.791Z,33.73
2024-02-29T23:02:42.293Z,34.30
2024-02-29T23:05:08.943Z,40.23
2024-02-29T23:07:35.503Z,31.93
2024-02-29T23:10:02.873Z,35.73
2024-02-29T23:12:29.530Z,33.03
2024-02-29T23:14:56.064Z,36.17
2024-02-29T23:17:22.603Z,39.10
2024-02-29T23:19:49.159Z,35.63
2024-02-29T23:22:15.705Z,32.37
2024-02-29T23:24:42.258Z,31.37
2024-02-29T23:27:08.873Z,34.20
2024-02-29T23:29:35.401Z,30.20
2024-02-29T23:32:02.004Z,27.20
2024-02-29T23:34:28.720Z,32.33
2024-02-29T23:36:55.365Z,32.00
2024-02-29T23:39:21.872Z,31.63
2024-02-29T23:41:48.470Z,33.23
2024-02-29T23:44:15.035Z,34.40
2024-02-29T23:46:42.345Z,31.97
2024-02-29T23:49:09.074Z,35.80
2024-02-29T23:51:37.104Z,32.07
2024-02-29T23:54:03.665Z,33.17
2024-02-29T23:56:30.270Z,35.43
2024-02-29T23:58:56.794Z,33.37
